Time;durP1;ratioP1;P1;durP2;ratioP2;P2;SDS_P1;SDS_P2;PMS_P1;PMS_P2;Temp;Humidity;BMP_temperature;BMP_pressure;BME280_temperature;BME280_humidity;BME280_pressure;Samples;Min_cycle;Max_cycle;Signal;HPM_P1;HPM_P2
2022/08/02 00:01:25;;;;;;;4.00;3.70;;;32.50;71.20;;;;;;5065785;28;20458;-68
2022/08/02 00:03:56;;;;;;;4.60;4.20;;;32.30;70.70;;;;;;5066984;28;20477;-69
2022/08/02 00:06:27;;;;;;;4.37;4.07;;;32.30;71.70;;;;;;5061158;28;20447;-69
2022/08/02 00:08:58;;;;;;;4.67;4.30;;;32.40;72.50;;;;;;5046465;28;20458;-69
2022/08/02 00:11:30;;;;;;;4.77;4.47;;;32.40;71.60;;;;;;5045644;28;20452;-68
2022/08/02 00:14:01;;;;;;;4.50;4.20;;;32.30;70.90;;;;;;5064161;28;20459;-68
2022/08/02 00:16:32;;;;;;;5.10;4.70;;;32.30;70.90;;;;;;5066166;28;20519;-67
2022/08/02 00:19:07;;;;;;;4.50;4.20;;;32.00;71.90;;;;;;5067366;28;20997;-68
2022/08/02 00:21:38;;;;;;;4.33;4.03;;;32.00;72.20;;;;;;5081920;28;20464;-68
2022/08/02 00:24:09;;;;;;;4.57;4.27;;;32.10;71.30;;;;;;5071192;28;20445;-68
2022/08/02 00:27:02;;;;;;;4.70;4.30;;;32.10;71.60;;;;;;5073139;28;20443;-68
2022/08/02 00:29:38;;;;;;;4.40;4.10;;;32.20;71.80;;;;;;5064212;28;20501;-68
2022/08/02 00:32:22;;;;;;;5.03;3.80;;;32.10;71.10;;;;;;5068319;28;20572;-63
2022/08/02 00:34:53;;;;;;;4.40;4.10;;;32.20;70.90;;;;;;5066334;28;20469;-68
2022/08/02 00:37:24;;;;;;;4.20;3.90;;;32.30;69.90;;;;;;5066761;28;20473;-67
2022/08/02 00:39:56;;;;;;;4.53;4.13;;;32.20;71.50;;;;;;5060251;28;20486;-68
2022/08/02 00:42:29;;;;;;;4.63;4.23;;;32.30;72.20;;;;;;5068780;28;20758;-67
2022/08/02 00:45:00;;;;;;;3.87;3.67;;;32.30;71.20;;;;;;5063176;28;20466;-67
2022/08/02 00:47:32;;;;;;;3.87;3.57;;;32.50;69.40;;;;;;5060443;28;20474;-68
2022/08/02 00:50:02;;;;;;;4.03;3.73;;;32.60;68.40;;;;;;5063135;28;20467;-67
2022/08/02 00:52:33;;;;;;;3.57;3.30;;;32.60;67.90;;;;;;5061336;28;20469;-68
2022/08/02 00:55:04;;;;;;;3.50;3.30;;;32.40;67.50;;;;;;5064408;28;20486;-68
2022/08/02 00:57:37;;;;;;;3.77;3.50;;;32.30;69.20;;;;;;5073206;28;20505;-68
2022/08/02 01:00:09;;;;;;;4.17;3.87;;;32.30;68.00;;;;;;5062128;28;20533;-68
2022/08/02 01:02:40;;;;;;;3.63;3.33;;;32.30;67.40;;;;;;5061220;28;20471;-69
2022/08/02 01:05:11;;;;;;;3.40;3.20;;;32.00;70.20;;;;;;5069201;28;20494;-69
2022/08/02 01:07:42;;;;;;;3.97;3.67;;;32.10;70.80;;;;;;5062444;28;20477;-70
2022/08/02 01:10:13;;;;;;;3.57;3.30;;;32.10;70.00;;;;;;5059018;28;20460;-68
2022/08/02 01:12:46;;;;;;;3.53;3.33;;;32.00;70.90;;;;;;5064058;28;20452;-69
2022/08/02 01:15:18;;;;;;;3.10;2.87;;;32.10;71.50;;;;;;5067037;28;20477;-69
2022/08/02 01:17:55;;;;;;;3.87;2.83;;;32.00;72.00;;;;;;5077649;28;20460;-68
2022/08/02 01:21:00;;;;;;;3.70;3.50;;;31.80;72.80;;;;;;5064352;28;20489;-68
2022/08/02 01:23:52;;;;;;;3.57;3.30;;;31.90;73.80;;;;;;5067880;28;20497;-69
2022/08/02 01:26:38;;;;;;;2.90;2.70;;;31.60;74.30;;;;;;5068925;28;20457;-67
2022/08/02 01:29:18;;;;;;;2.83;2.47;;;31.60;75.30;;;;;;5063541;28;20927;-67
2022/08/02 01:31:54;;;;;;;3.33;2.40;;;31.50;75.20;;;;;;5061278;28;20463;-67
2022/08/02 01:34:34;;;;;;;2.97;2.77;;;31.30;75.80;;;;;;5064514;28;20480;-67
2022/08/02 01:37:09;;;;;;;2.40;2.20;;;31.20;75.50;;;;;;5060695;28;20844;-68
2022/08/02 01:39:43;;;;;;;2.47;2.27;;;31.10;75.70;;;;;;5063968;28;20474;-68
2022/08/02 01:42:16;;;;;;;2.13;2.03;;;31.10;76.10;;;;;;5064328;28;20461;-69
2022/08/02 01:44:52;;;;;;;2.40;2.20;;;31.00;76.20;;;;;;5066226;28;20463;-69
2022/08/02 01:47:26;;;;;;;2.30;2.10;;;31.00;75.40;;;;;;5060631;28;20959;-69
2022/08/02 01:49:59;;;;;;;2.00;1.80;;;30.80;75.10;;;;;;5064176;28;20453;-70
2022/08/02 01:52:33;;;;;;;2.17;2.07;;;30.70;76.00;;;;;;5063791;28;20447;-68
2022/08/02 01:55:07;;;;;;;1.70;1.60;;;30.60;75.20;;;;;;5070707;28;20474;-69
2022/08/02 01:57:50;;;;;;;2.43;1.70;;;30.50;74.90;;;;;;5066463;28;20870;-70
2022/08/02 02:00:25;;;;;;;1.40;1.30;;;30.30;75.90;;;;;;5069477;28;20500;-71
2022/08/02 02:02:59;;;;;;;1.73;1.63;;;30.30;75.00;;;;;;5061656;28;20837;-69
2022/08/02 02:05:33;;;;;;;1.60;1.50;;;30.20;76.40;;;;;;5056588;28;20535;-70
2022/08/02 02:08:06;;;;;;;1.60;1.50;;;30.10;76.00;;;;;;5069225;28;20436;-71
2022/08/02 02:10:39;;;;;;;1.80;1.70;;;30.10;75.90;;;;;;5058429;28;20841;-72
2022/08/02 02:13:16;;;;;;;1.30;1.20;;;30.00;77.00;;;;;;5063498;28;21058;-68
2022/08/02 02:15:51;;;;;;;1.73;1.63;;;29.90;77.60;;;;;;5060211;28;20469;-69
2022/08/02 02:18:25;;;;;;;1.27;1.10;;;29.90;78.00;;;;;;5057972;28;20473;-69
2022/08/02 02:20:57;;;;;;;2.00;1.50;;;29.80;78.40;;;;;;5059349;28;21351;-69
2022/08/02 02:23:28;;;;;;;2.10;1.30;;;29.70;79.10;;;;;;5052476;28;20765;-71
2022/08/02 02:26:05;;;;;;;1.40;1.30;;;29.50;78.90;;;;;;5075233;28;20457;-69
2022/08/02 02:28:40;;;;;;;1.80;1.70;;;29.40;78.70;;;;;;5068160;28;20478;-68
2022/08/02 02:31:17;;;;;;;1.20;1.10;;;29.20;79.30;;;;;;5069566;28;20460;-68
2022/08/02 02:33:51;;;;;;;0.90;0.80;;;29.20;78.50;;;;;;5057158;28;20997;-68
2022/08/02 02:36:23;;;;;;;1.17;1.17;;;29.10;77.60;;;;;;5061872;28;20457;-68
2022/08/02 02:38:54;;;;;;;1.00;1.00;;;29.00;78.10;;;;;;5054822;28;20459;-68
2022/08/02 02:41:26;;;;;;;0.90;0.90;;;29.00;79.10;;;;;;5062851;28;20490;-68
2022/08/02 02:44:02;;;;;;;0.80;0.80;;;29.00;82.30;;;;;;5060329;28;20529;-68
2022/08/02 02:46:35;;;;;;;1.10;1.10;;;28.90;82.50;;;;;;5063969;28;21003;-69
2022/08/02 02:49:07;;;;;;;1.17;1.13;;;28.80;83.80;;;;;;5078603;28;20992;-69
2022/08/02 02:51:41;;;;;;;1.33;1.30;;;28.60;84.80;;;;;;5071885;28;20538;-71
2022/08/02 02:54:13;;;;;;;1.30;1.20;;;28.50;85.50;;;;;;5070575;28;20463;-69
2022/08/02 02:57:05;;;;;;;1.10;1.10;;;28.50;86.60;;;;;;5064823;28;20470;-69
2022/08/02 02:59:36;;;;;;;1.27;1.10;;;28.20;87.80;;;;;;5074136;28;20491;-68
2022/08/02 03:02:20;;;;;;;1.30;1.20;;;28.10;88.50;;;;;;5069435;28;20563;-68
2022/08/02 03:04:52;;;;;;;1.50;1.40;;;28.00;89.30;;;;;;5062382;28;20545;-68
2022/08/02 03:07:28;;;;;;;1.63;1.53;;;27.90;89.90;;;;;;5060654;28;20523;-68
2022/08/02 03:09:58;;;;;;;1.33;1.23;;;27.70;90.10;;;;;;5061963;28;20457;-67
2022/08/02 03:12:30;;;;;;;1.53;1.43;;;27.70;90.40;;;;;;5062499;28;20448;-69
2022/08/02 03:15:02;;;;;;;1.40;1.30;;;27.50;90.70;;;;;;5062106;28;20459;-70
2022/08/02 03:17:43;;;;;;;1.20;1.10;;;27.40;91.00;;;;;;5066733;28;20463;-69
2022/08/02 03:20:15;;;;;;;1.50;1.40;;;27.40;90.90;;;;;;5067575;28;20463;-68
2022/08/02 03:22:47;;;;;;;1.47;1.37;;;27.40;90.80;;;;;;5075096;28;20516;-69
2022/08/02 03:25:18;;;;;;;1.40;1.30;;;27.40;90.70;;;;;;5081729;28;20464;-69
2022/08/02 03:27:49;;;;;;;1.20;1.20;;;27.30;90.70;;;;;;5082082;28;20623;-70
2022/08/02 03:30:23;;;;;;;1.20;1.10;;;27.20;91.00;;;;;;5082792;28;20465;-70
2022/08/02 03:32:55;;;;;;;1.10;1.10;;;26.90;91.30;;;;;;5067934;28;20796;-69
2022/08/02 03:35:26;;;;;;;1.47;1.37;;;26.70;91.80;;;;;;5061143;28;20459;-69
2022/08/02 03:37:58;;;;;;;3.57;1.20;;;26.50;91.80;;;;;;5062914;28;20477;-68
2022/08/02 03:40:30;;;;;;;1.00;1.00;;;26.40;92.60;;;;;;5060122;28;20529;-70
2022/08/02 03:43:03;;;;;;;1.20;1.20;;;26.20;93.00;;;;;;5050330;28;20873;-69
2022/08/02 03:45:34;;;;;;;2.30;1.20;;;26.20;92.80;;;;;;5071458;28;20446;-67
2022/08/02 03:48:09;;;;;;;0.97;0.93;;;26.20;93.00;;;;;;5062329;28;20469;-69
2022/08/02 03:51:00;;;;;;;1.20;1.10;;;26.00;93.10;;;;;;5059208;28;20467;-67
2022/08/02 03:53:31;;;;;;;1.40;1.30;;;25.90;92.60;;;;;;5063764;28;20471;-70
2022/08/02 03:56:04;;;;;;;1.13;1.03;;;25.70;92.70;;;;;;5065289;28;20460;-70
2022/08/02 03:58:35;;;;;;;1.27;1.17;;;25.70;92.70;;;;;;5067142;28;20566;-69
2022/08/02 04:01:06;;;;;;;1.10;1.00;;;25.60;92.80;;;;;;5074334;28;20485;-68
2022/08/02 04:03:38;;;;;;;1.20;1.10;;;25.50;92.60;;;;;;5064719;28;20846;-67
2022/08/02 04:06:09;;;;;;;1.50;1.40;;;25.40;92.50;;;;;;5062869;28;20461;-67
2022/08/02 04:08:43;;;;;;;1.13;1.10;;;25.30;92.50;;;;;;5061033;28;20463;-67
2022/08/02 04:13:59;;;;;;;1.10;1.10;;;25.00;93.40;;;;;;5064217;28;20476;-67
2022/08/02 04:16:40;;;;;;;1.00;1.00;;;25.00;93.20;;;;;;5065665;28;20936;-67
2022/08/02 04:19:17;;;;;;;1.77;1.50;;;25.00;93.10;;;;;;5065138;28;20462;-67
2022/08/02 04:21:49;;;;;;;1.07;0.90;;;24.80;93.40;;;;;;5063136;28;21044;-67
2022/08/02 04:24:26;;;;;;;1.37;1.20;;;24.80;93.20;;;;;;5064476;28;20469;-67
2022/08/02 04:26:59;;;;;;;1.10;1.00;;;24.70;93.70;;;;;;5071285;28;20494;-68
2022/08/02 04:29:50;;;;;;;1.40;1.30;;;24.60;93.70;;;;;;5066085;28;20457;-67
2022/08/02 04:32:22;;;;;;;1.20;1.10;;;24.60;93.70;;;;;;5064394;28;20494;-68
2022/08/02 04:34:55;;;;;;;0.80;0.80;;;24.50;93.80;;;;;;5064924;28;20459;-67
2022/08/02 04:37:46;;;;;;;0.80;0.80;;;24.50;93.80;;;;;;5066535;28;20514;-68
2022/08/02 04:40:38;;;;;;;1.10;1.00;;;24.40;94.20;;;;;;5065093;28;20455;-67
2022/08/02 04:43:09;;;;;;;1.30;1.20;;;24.20;94.30;;;;;;5078278;28;20470;-66
2022/08/02 04:45:39;;;;;;;1.40;1.30;;;24.20;94.80;;;;;;5065781;28;20490;-67
2022/08/02 04:48:11;;;;;;;1.33;1.23;;;24.10;94.90;;;;;;5063668;28;20532;-67
2022/08/02 04:50:44;;;;;;;0.73;0.73;;;24.00;95.10;;;;;;5065705;28;20460;-67
2022/08/02 04:53:15;;;;;;;0.93;0.87;;;23.90;95.60;;;;;;5065142;28;20460;-67
2022/08/02 04:55:46;;;;;;;1.27;1.17;;;23.90;95.90;;;;;;5062523;28;20468;-67
2022/08/02 04:58:16;;;;;;;1.20;1.10;;;23.80;96.50;;;;;;5069517;28;20478;-66
2022/08/02 05:01:07;;;;;;;1.77;0.97;;;23.80;96.60;;;;;;5067188;28;20463;-67
2022/08/02 05:03:38;;;;;;;1.10;1.00;;;23.70;97.10;;;;;;5077190;28;20483;-66
2022/08/02 05:06:10;;;;;;;0.90;0.73;;;23.70;97.40;;;;;;5065507;28;20472;-67
2022/08/02 05:08:49;;;;;;;1.57;1.00;;;23.70;97.20;;;;;;5076062;28;20667;-67
2022/08/02 05:11:23;;;;;;;0.87;0.87;;;23.60;97.70;;;;;;5066057;28;20459;-67
2022/08/02 05:14:05;;;;;;;0.87;0.80;;;23.50;97.80;;;;;;5083881;28;20878;-67
2022/08/02 05:16:36;;;;;;;0.80;0.80;;;23.40;98.30;;;;;;5074263;28;20449;-67
2022/08/02 05:19:06;;;;;;;1.20;1.10;;;23.30;98.80;;;;;;5055434;28;20456;-67
2022/08/02 05:21:39;;;;;;;1.10;1.00;;;23.20;99.30;;;;;;5059492;28;20962;-66
2022/08/02 05:24:10;;;;;;;1.57;1.47;;;23.20;99.90;;;;;;5066402;28;20464;-67
2022/08/02 05:26:41;;;;;;;1.30;1.20;;;23.20;99.90;;;;;;5053641;28;20494;-67
2022/08/02 05:29:12;;;;;;;1.40;1.30;;;23.10;99.90;;;;;;5069243;28;20460;-67
2022/08/02 05:31:44;;;;;;;1.37;0.93;;;23.10;99.90;;;;;;5073728;28;20462;-67
2022/08/02 05:34:15;;;;;;;2.00;1.13;;;23.00;99.90;;;;;;5070889;28;20460;-67
2022/08/02 05:36:47;;;;;;;1.70;1.20;;;23.00;99.90;;;;;;5063085;28;20807;-67
2022/08/02 05:39:19;;;;;;;1.37;1.17;;;23.00;99.90;;;;;;5062625;28;20924;-67
2022/08/02 05:41:50;;;;;;;2.00;1.13;;;22.90;99.90;;;;;;5064870;28;20455;-67
2022/08/02 05:44:21;;;;;;;1.23;1.10;;;22.80;99.90;;;;;;5068821;28;20482;-67
2022/08/02 05:46:51;;;;;;;1.23;1.00;;;22.80;99.90;;;;;;5064069;28;20471;-67
2022/08/02 05:49:23;;;;;;;1.20;1.10;;;22.70;99.90;;;;;;5067660;28;20464;-68
2022/08/02 05:52:04;;;;;;;1.60;1.07;;;22.70;99.90;;;;;;5074184;28;20536;-67
2022/08/02 05:54:43;;;;;;;1.20;1.10;;;22.70;99.90;;;;;;5067392;28;20472;-67
2022/08/02 05:57:24;;;;;;;1.60;0.93;;;22.60;99.90;;;;;;5062025;28;20777;-67
2022/08/02 06:00:08;;;;;;;1.00;0.87;;;22.60;99.90;;;;;;5070538;28;20471;-67
2022/08/02 06:02:51;;;;;;;1.13;1.03;;;22.60;99.90;;;;;;5055472;28;20498;-67
2022/08/02 06:05:22;;;;;;;1.60;0.97;;;22.50;99.90;;;;;;5065768;28;20448;-67
2022/08/02 06:07:58;;;;;;;1.50;0.90;;;22.50;99.90;;;;;;5063797;28;20467;-67
2022/08/02 06:10:30;;;;;;;1.03;0.80;;;22.50;99.90;;;;;;5065648;28;20464;-67
2022/08/02 06:13:09;;;;;;;1.10;1.00;;;22.40;99.90;;;;;;5064200;28;20771;-67
2022/08/02 06:15:43;;;;;;;1.37;1.07;;;22.30;99.90;;;;;;5067289;28;20560;-67
2022/08/02 06:18:22;;;;;;;2.50;1.10;;;22.20;99.90;;;;;;5064358;28;20452;-67
2022/08/02 06:20:59;;;;;;;1.17;1.07;;;22.10;99.90;;;;;;5062452;28;21229;-67
2022/08/02 06:23:52;;;;;;;1.43;1.23;;;22.00;99.90;;;;;;5071521;28;20492;-67
2022/08/02 06:26:29;;;;;;;1.60;0.83;;;21.90;99.90;;;;;;5061004;28;20468;-66
2022/08/02 06:29:00;;;;;;;2.00;1.00;;;21.90;99.90;;;;;;5061143;28;20491;-67
2022/08/02 06:31:31;;;;;;;1.30;0.83;;;21.90;99.90;;;;;;5057751;28;20474;-67
2022/08/02 06:34:01;;;;;;;1.17;1.07;;;21.80;99.90;;;;;;5068096;28;20966;-67
2022/08/02 06:36:38;;;;;;;2.80;1.20;;;21.80;99.90;;;;;;5064130;28;20952;-68
2022/08/02 06:39:19;;;;;;;1.03;0.83;;;21.80;99.90;;;;;;5066750;28;20455;-67
2022/08/02 06:41:52;;;;;;;1.00;0.90;;;21.70;99.90;;;;;;5063160;28;20444;-67
2022/08/02 06:44:23;;;;;;;1.03;0.80;;;21.50;99.90;;;;;;5048879;28;20487;-67
2022/08/02 06:47:14;;;;;;;1.50;1.30;;;21.50;99.90;;;;;;5073237;28;20513;-67
2022/08/02 06:49:45;;;;;;;1.60;1.33;;;21.40;99.90;;;;;;5063751;28;20460;-67
2022/08/02 06:52:26;;;;;;;1.67;0.90;;;21.40;99.90;;;;;;5075338;28;20444;-67
2022/08/02 06:55:02;;;;;;;0.97;0.87;;;21.40;99.90;;;;;;5062462;28;20458;-68
2022/08/02 06:57:33;;;;;;;1.00;0.83;;;21.30;99.90;;;;;;5061933;28;20856;-68
2022/08/02 07:00:07;;;;;;;1.23;1.00;;;21.30;99.90;;;;;;5070665;28;20525;-67
2022/08/02 07:02:39;;;;;;;1.80;1.30;;;21.30;99.90;;;;;;5071504;28;20479;-67
2022/08/02 07:05:11;;;;;;;1.87;1.00;;;21.20;99.90;;;;;;5075328;28;20434;-67
2022/08/02 07:07:41;;;;;;;1.63;1.30;;;21.10;99.90;;;;;;5053222;28;20440;-67
2022/08/02 07:10:14;;;;;;;1.50;1.40;;;21.10;99.90;;;;;;5064409;28;20479;-67
2022/08/02 07:12:45;;;;;;;1.93;1.30;;;21.10;99.90;;;;;;5072773;28;20433;-67
2022/08/02 07:15:15;;;;;;;1.37;1.20;;;21.00;99.90;;;;;;5062515;28;20471;-67
2022/08/02 07:17:46;;;;;;;1.80;1.60;;;20.90;99.90;;;;;;5065348;28;20791;-68
2022/08/02 07:20:17;;;;;;;1.17;1.07;;;20.90;99.90;;;;;;5066865;28;20468;-67
2022/08/02 07:22:48;;;;;;;1.00;0.70;;;20.90;99.90;;;;;;5075661;28;20479;-67
2022/08/02 07:25:21;;;;;;;1.00;0.90;;;20.80;99.90;;;;;;5068692;28;20482;-68
2022/08/02 07:27:51;;;;;;;1.57;1.47;;;20.70;99.90;;;;;;5061068;28;20542;-68
2022/08/02 07:30:25;;;;;;;1.20;1.03;;;20.70;99.90;;;;;;5060791;28;20566;-67
2022/08/02 07:32:56;;;;;;;1.20;1.10;;;20.50;99.90;;;;;;5064233;28;20468;-67
2022/08/02 07:35:27;;;;;;;1.40;1.27;;;20.50;99.90;;;;;;5054118;28;20465;-68
2022/08/02 07:38:00;;;;;;;1.30;1.20;;;20.40;99.90;;;;;;5055912;28;20447;-67
2022/08/02 07:40:33;;;;;;;1.20;0.80;;;20.40;99.90;;;;;;5051884;28;20431;-68
2022/08/02 07:43:03;;;;;;;1.90;1.40;;;20.30;99.90;;;;;;5063413;28;20477;-68
2022/08/02 07:45:35;;;;;;;2.33;1.23;;;20.30;99.90;;;;;;5054986;28;20464;-67
2022/08/02 07:48:25;;;;;;;1.43;1.00;;;20.30;99.90;;;;;;5060679;28;20439;-67
2022/08/02 07:50:56;;;;;;;1.57;1.10;;;20.20;99.90;;;;;;5066486;28;20477;-67
2022/08/02 07:53:27;;;;;;;1.40;1.10;;;20.10;99.90;;;;;;5081112;28;20452;-68
2022/08/02 07:56:19;;;;;;;1.50;1.40;;;20.10;99.90;;;;;;5081210;28;20442;-67
2022/08/02 07:58:50;;;;;;;2.30;1.23;;;20.00;99.90;;;;;;5080848;28;20479;-67
2022/08/02 08:01:21;;;;;;;1.70;1.53;;;20.00;99.90;;;;;;5079492;28;20470;-68
2022/08/02 08:03:52;;;;;;;1.30;1.20;;;19.90;99.90;;;;;;5078452;28;20466;-67
2022/08/02 08:06:23;;;;;;;1.00;0.90;;;19.80;99.90;;;;;;5077048;28;20474;-67
2022/08/02 08:08:57;;;;;;;1.60;1.50;;;19.80;99.90;;;;;;5065119;28;20450;-67
2022/08/02 08:11:30;;;;;;;1.37;1.20;;;19.80;99.90;;;;;;5075955;28;20441;-67
2022/08/02 08:14:01;;;;;;;1.10;1.00;;;19.70;99.90;;;;;;5070929;28;20432;-67
2022/08/02 08:16:31;;;;;;;1.93;1.50;;;19.70;99.90;;;;;;5064329;28;20765;-67
2022/08/02 08:19:02;;;;;;;1.87;1.10;;;19.70;99.90;;;;;;5064365;28;20461;-67
2022/08/02 08:21:34;;;;;;;1.53;1.43;;;19.60;99.90;;;;;;5063901;28;20955;-67
2022/08/02 08:24:05;;;;;;;1.23;1.13;;;19.70;99.90;;;;;;5065062;28;20474;-67
2022/08/02 08:26:38;;;;;;;1.60;1.20;;;19.60;99.90;;;;;;5065809;28;20436;-67
2022/08/02 08:29:09;;;;;;;1.30;1.20;;;19.60;99.90;;;;;;5057785;28;20460;-68
2022/08/02 08:31:40;;;;;;;1.83;1.20;;;19.60;99.90;;;;;;5067206;28;20944;-67
2022/08/02 08:34:11;;;;;;;1.23;1.13;;;19.40;99.90;;;;;;5064507;28;20547;-67
2022/08/02 08:36:42;;;;;;;1.10;1.00;;;19.40;99.90;;;;;;5062861;28;20585;-67
2022/08/02 08:39:12;;;;;;;1.20;1.10;;;19.40;99.90;;;;;;5064863;28;20470;-67
2022/08/02 08:41:45;;;;;;;1.37;1.27;;;19.40;99.90;;;;;;5068595;28;20443;-67
2022/08/02 08:44:16;;;;;;;1.87;1.00;;;19.40;99.90;;;;;;5078900;28;20488;-66
2022/08/02 08:46:49;;;;;;;1.70;1.30;;;19.30;99.90;;;;;;5062617;28;20464;-67
2022/08/02 08:49:25;;;;;;;2.10;1.13;;;19.20;99.90;;;;;;5063639;28;20449;-67
2022/08/02 08:52:01;;;;;;;1.93;1.30;;;19.20;99.90;;;;;;5065183;28;20902;-67
2022/08/02 08:54:34;;;;;;;1.70;1.30;;;19.10;99.90;;;;;;5064118;28;20464;-67
2022/08/02 08:57:09;;;;;;;1.80;1.70;;;19.10;99.90;;;;;;5063806;28;20447;-67
2022/08/02 08:59:42;;;;;;;0.80;0.80;;;19.00;99.90;;;;;;5068712;28;20470;-68
2022/08/02 09:02:14;;;;;;;0.90;0.90;;;19.00;99.90;;;;;;5065004;28;20422;-67
2022/08/02 09:04:52;;;;;;;1.47;1.03;;;19.00;99.90;;;;;;5069006;28;20510;-67
2022/08/02 09:07:24;;;;;;;1.53;1.17;;;18.90;99.90;;;;;;5062760;28;20502;-67
2022/08/02 09:09:55;;;;;;;1.33;1.23;;;18.90;99.90;;;;;;5048442;28;20456;-66
2022/08/02 09:12:27;;;;;;;0.80;0.80;;;18.80;99.90;;;;;;5065687;28;20536;-66
2022/08/02 09:14:58;;;;;;;0.87;0.80;;;18.70;99.90;;;;;;5062326;28;20467;-67
2022/08/02 09:17:28;;;;;;;1.03;0.70;;;18.70;99.90;;;;;;5066581;28;20445;-67
2022/08/02 09:20:17;;;;;;;1.73;1.00;;;18.70;99.90;;;;;;5066795;28;20445;-67
2022/08/02 09:23:07;;;;;;;0.87;0.70;;;18.80;99.90;;;;;;5064422;28;20456;-67
2022/08/02 09:25:38;;;;;;;0.93;0.73;;;18.70;99.90;;;;;;5063110;28;20438;-67
2022/08/02 09:28:30;;;;;;;0.73;0.73;;;18.70;99.90;;;;;;5063906;28;20549;-67
2022/08/02 09:31:09;;;;;;;1.50;0.80;;;18.60;99.90;;;;;;5063990;28;20464;-67
2022/08/02 09:33:41;;;;;;;0.63;0.50;;;18.60;99.90;;;;;;5059674;28;20953;-67
2022/08/02 09:36:14;;;;;;;0.90;0.73;;;18.60;99.90;;;;;;5052800;28;20466;-67
2022/08/02 09:38:58;;;;;;;1.17;1.07;;;18.50;99.90;;;;;;5060656;28;20427;-67
2022/08/02 09:41:30;;;;;;;1.07;0.80;;;18.50;99.90;;;;;;5062684;28;20460;-67
2022/08/02 09:44:04;;;;;;;1.20;1.00;;;18.60;99.90;;;;;;5063181;28;20456;-67
2022/08/02 09:46:37;;;;;;;1.00;0.90;;;18.50;99.90;;;;;;5065061;28;20891;-67
2022/08/02 09:49:11;;;;;;;0.80;0.70;;;18.40;99.90;;;;;;5063850;28;20919;-67
2022/08/02 09:51:50;;;;;;;0.83;0.70;;;18.40;99.90;;;;;;5066752;28;20541;-67
2022/08/02 09:54:23;;;;;;;1.10;1.00;;;18.40;99.90;;;;;;5055544;28;20500;-67
2022/08/02 09:56:55;;;;;;;1.40;1.00;;;18.30;99.90;;;;;;5062663;28;20471;-67
2022/08/02 09:59:29;;;;;;;1.03;0.70;;;18.40;99.90;;;;;;5063478;28;20469;-67
2022/08/02 10:02:01;;;;;;;1.13;0.97;;;18.40;99.90;;;;;;5061223;28;20452;-67
2022/08/02 10:04:33;;;;;;;0.80;0.60;;;18.30;99.90;;;;;;5069043;28;20526;-67
2022/08/02 10:07:23;;;;;;;2.20;1.23;;;18.30;99.90;;;;;;5062190;28;20865;-67
2022/08/02 10:09:54;;;;;;;1.00;0.97;;;18.30;99.90;;;;;;5063925;28;20426;-67
2022/08/02 10:12:25;;;;;;;1.37;0.77;;;18.30;99.90;;;;;;5066331;28;20468;-67
2022/08/02 10:14:57;;;;;;;1.43;1.07;;;18.30;99.90;;;;;;5062885;28;20507;-67
2022/08/02 10:17:28;;;;;;;1.00;0.70;;;18.30;99.90;;;;;;5065341;28;20442;-67
2022/08/02 10:19:59;;;;;;;0.73;0.73;;;18.20;99.90;;;;;;5062032;28;20447;-67
2022/08/02 10:22:35;;;;;;;0.87;0.50;;;18.20;99.90;;;;;;5062131;28;20783;-67
2022/08/02 10:25:07;;;;;;;0.70;0.70;;;18.20;99.90;;;;;;5062696;28;20450;-68
2022/08/02 10:27:38;;;;;;;1.13;1.03;;;18.20;99.90;;;;;;5061289;28;20459;-67
2022/08/02 10:30:32;;;;;;;0.60;0.60;;;18.20;99.90;;;;;;5067548;28;20463;-67
2022/08/02 10:33:04;;;;;;;0.70;0.70;;;18.10;99.90;;;;;;5067228;28;20450;-67
2022/08/02 10:35:39;;;;;;;1.00;0.70;;;18.10;99.90;;;;;;5067626;28;20532;-67
2022/08/02 10:38:11;;;;;;;0.90;0.90;;;18.10;99.90;;;;;;5063093;28;20434;-67
2022/08/02 10:40:47;;;;;;;0.93;0.73;;;18.10;99.90;;;;;;5080991;28;20471;-67
2022/08/02 10:43:49;;;;;;;1.23;1.13;;;18.10;99.90;;;;;;5070141;28;20442;-68
2022/08/02 10:46:32;;;;;;;0.87;0.87;;;18.10;99.90;;;;;;5061520;28;20456;-68
2022/08/02 10:49:11;;;;;;;1.57;1.13;;;18.10;99.90;;;;;;5054034;28;20474;-67
2022/08/02 10:52:09;;;;;;;1.00;0.80;;;18.10;99.90;;;;;;5067542;28;20517;-67
2022/08/02 10:54:43;;;;;;;1.10;1.00;;;18.10;99.90;;;;;;5062733;28;20482;-67
2022/08/02 10:57:20;;;;;;;0.93;0.93;;;18.10;99.90;;;;;;5062029;28;20464;-67
2022/08/02 10:59:51;;;;;;;2.23;1.10;;;18.10;99.90;;;;;;5062209;28;20468;-66
2022/08/02 11:02:41;;;;;;;1.20;1.03;;;18.10;99.90;;;;;;5061481;28;20851;-67
2022/08/02 11:05:16;;;;;;;1.23;1.07;;;18.10;99.90;;;;;;5063087;28;20463;-67
2022/08/02 11:07:48;;;;;;;1.43;1.30;;;18.00;99.90;;;;;;5074311;28;20470;-68
2022/08/02 11:10:37;;;;;;;1.40;1.30;;;18.00;99.90;;;;;;5080079;28;20441;-68
2022/08/02 11:13:13;;;;;;;1.37;1.27;;;18.00;99.90;;;;;;5053727;28;20435;-67
2022/08/02 11:15:56;;;;;;;1.07;1.00;;;17.90;99.90;;;;;;5074186;28;20465;-68
2022/08/02 11:18:59;;;;;;;1.67;1.57;;;17.90;99.90;;;;;;5062841;28;20843;-67
2022/08/02 11:21:33;;;;;;;1.30;1.17;;;18.00;99.90;;;;;;5062821;28;20860;-68
2022/08/02 11:24:26;;;;;;;2.87;1.17;;;18.00;99.90;;;;;;5064307;28;20439;-68
2022/08/02 11:26:58;;;;;;;1.30;1.17;;;18.00;99.90;;;;;;5057804;28;20438;-67
2022/08/02 11:29:39;;;;;;;1.20;1.10;;;18.00;99.90;;;;;;5051958;28;20577;-68
2022/08/02 11:32:17;;;;;;;1.20;1.10;;;18.00;99.90;;;;;;5070696;28;20437;-68
2022/08/02 11:34:50;;;;;;;1.33;1.10;;;18.10;99.90;;;;;;5069717;28;20433;-68
2022/08/02 11:37:33;;;;;;;1.47;1.30;;;18.00;99.90;;;;;;5076238;28;20528;-67
2022/08/02 11:40:05;;;;;;;1.20;1.10;;;18.10;99.90;;;;;;5058881;28;20470;-67
2022/08/02 11:42:50;;;;;;;1.17;1.07;;;18.10;99.90;;;;;;5064996;28;20431;-68
2022/08/02 11:45:26;;;;;;;1.40;1.30;;;18.10;99.90;;;;;;5062914;28;20582;-67
2022/08/02 11:47:58;;;;;;;1.20;1.10;;;18.00;99.90;;;;;;5062608;28;20461;-67
2022/08/02 11:50:29;;;;;;;2.00;1.23;;;18.00;99.90;;;;;;5061555;28;20434;-68
2022/08/02 11:53:02;;;;;;;1.90;1.70;;;18.10;99.90;;;;;;5050595;28;20464;-67
2022/08/02 11:55:33;;;;;;;1.43;1.20;;;18.10;99.90;;;;;;5061619;28;20614;-67
2022/08/02 11:58:06;;;;;;;1.80;1.30;;;18.10;99.90;;;;;;5075099;28;20475;-67
2022/08/02 12:00:37;;;;;;;1.60;1.20;;;18.20;99.90;;;;;;5071678;28;20435;-67
2022/08/02 12:03:08;;;;;;;1.57;1.47;;;18.10;99.90;;;;;;5075772;28;20438;-67
2022/08/02 12:05:39;;;;;;;1.90;1.63;;;18.20;99.90;;;;;;5057494;28;20431;-68
2022/08/02 12:08:32;;;;;;;1.80;1.67;;;18.20;99.90;;;;;;5063574;28;20436;-68
2022/08/02 12:11:04;;;;;;;1.93;1.73;;;18.30;99.90;;;;;;5065740;28;20445;-67
2022/08/02 12:13:44;;;;;;;3.53;1.83;;;18.20;99.90;;;;;;5060913;28;20468;-68
2022/08/02 12:19:19;;;;;;;1.80;1.70;;;18.20;99.90;;;;;;5071367;28;20431;-67
2022/08/02 12:21:50;;;;;;;2.20;1.83;;;18.20;99.90;;;;;;5061248;28;20450;-67
2022/08/02 12:24:32;;;;;;;2.20;1.83;;;18.30;99.90;;;;;;5060479;28;20502;-67
2022/08/02 12:27:03;;;;;;;2.77;2.57;;;18.20;99.90;;;;;;5060646;28;20451;-67
2022/08/02 12:29:35;;;;;;;2.33;2.13;;;18.20;99.90;;;;;;5061170;28;20456;-67
2022/08/02 12:32:26;;;;;;;2.43;2.10;;;18.20;99.90;;;;;;5061146;28;20543;-67
2022/08/02 12:35:12;;;;;;;1.90;1.80;;;18.20;99.90;;;;;;5072954;28;20497;-67
2022/08/02 12:37:55;;;;;;;2.23;2.03;;;18.10;99.90;;;;;;5069427;28;20761;-68
2022/08/02 12:40:31;;;;;;;2.47;2.20;;;18.00;99.90;;;;;;5068385;28;20446;-67
2022/08/02 12:43:04;;;;;;;2.30;2.10;;;18.00;99.90;;;;;;5060147;28;20441;-67
2022/08/02 12:45:46;;;;;;;2.27;1.80;;;18.00;99.90;;;;;;5061341;28;20471;-67
2022/08/02 12:48:30;;;;;;;2.20;2.00;;;17.90;99.90;;;;;;5060415;28;20452;-67
2022/08/02 12:51:21;;;;;;;2.53;2.33;;;17.90;99.90;;;;;;5071829;28;20442;-67
2022/08/02 12:53:53;;;;;;;1.93;1.83;;;17.90;99.90;;;;;;5073508;28;20951;-67
2022/08/02 12:56:31;;;;;;;2.17;1.97;;;17.90;99.90;;;;;;5073694;28;20955;-67
2022/08/02 12:59:02;;;;;;;1.70;1.53;;;17.90;99.90;;;;;;5064830;28;20484;-66
2022/08/02 13:01:33;;;;;;;2.30;2.07;;;17.90;99.90;;;;;;5063479;28;20821;-66
2022/08/02 13:04:05;;;;;;;2.53;2.23;;;17.90;99.90;;;;;;5059052;28;20471;-66
2022/08/02 13:06:42;;;;;;;2.23;2.00;;;18.00;99.90;;;;;;5062129;28;20446;-66
2022/08/02 13:09:17;;;;;;;1.90;1.70;;;18.00;99.90;;;;;;5069809;28;20560;-67
2022/08/02 13:11:49;;;;;;;2.17;1.97;;;18.10;99.90;;;;;;5066588;28;20464;-66
2022/08/02 13:14:20;;;;;;;1.97;1.87;;;18.10;99.90;;;;;;5062796;28;20984;-66
2022/08/02 13:16:51;;;;;;;2.10;1.90;;;18.00;99.90;;;;;;5061329;28;20477;-66
2022/08/02 13:19:22;;;;;;;2.40;1.83;;;18.10;99.90;;;;;;5064827;28;20452;-66
2022/08/02 13:21:53;;;;;;;2.47;2.00;;;18.10;99.90;;;;;;5068360;28;20532;-66
2022/08/02 13:24:40;;;;;;;3.10;2.80;;;18.00;99.90;;;;;;5063232;28;20477;-66
2022/08/02 13:27:27;;;;;;;2.57;2.37;;;18.10;99.90;;;;;;5065795;28;20457;-66
2022/08/02 13:29:59;;;;;;;1.90;1.80;;;18.10;99.90;;;;;;5063092;28;20435;-66
2022/08/02 13:32:30;;;;;;;2.50;1.80;;;18.20;99.90;;;;;;5065370;28;20438;-66
2022/08/02 13:35:01;;;;;;;2.00;1.80;;;18.20;99.90;;;;;;5063849;28;20439;-66